createdAt,value
2023-08-08T00:00:17.421Z,1.57
2023-08-08T00:00:49.864Z,1.33
2023-08-08T00:01:21.920Z,1.27
2023-08-08T00:01:53.862Z,1.07
2023-08-08T00:02:25.803Z,1.23
2023-08-08T00:02:57.847Z,1.13
2023-08-08T00:03:30.044Z,1.17
2023-08-08T00:04:02.097Z,1.47
2023-08-08T00:04:34.024Z,1.80
2023-08-08T00:05:06.094Z,1.63
2023-08-08T00:05:38.001Z,1.43
2023-08-08T00:06:09.988Z,1.57
2023-08-08T00:06:41.928Z,1.47
2023-08-08T00:07:13.887Z,1.33
2023-08-08T00:07:45.844Z,1.43
2023-08-08T00:08:17.715Z,1.07
2023-08-08T00:08:49.648Z,1.40
2023-08-08T00:09:21.618Z,1.67
2023-08-08T00:09:53.484Z,1.47
2023-08-08T00:10:25.407Z,1.43
2023-08-08T00:10:57.589Z,1.43
2023-08-08T00:11:29.481Z,1.40
2023-08-08T00:12:01.518Z,1.10
2023-08-08T00:12:33.601Z,1.17
2023-08-08T00:13:05.555Z,1.60
2023-08-08T00:13:37.745Z,1.43
2023-08-08T00:14:09.762Z,1.20
2023-08-08T00:14:41.716Z,1.37
2023-08-08T00:15:13.662Z,1.43
2023-08-08T00:15:45.611Z,1.40
2023-08-08T00:16:17.743Z,1.27
2023-08-08T00:16:49.733Z,1.47
2023-08-08T00:17:21.627Z,1.70
2023-08-08T00:17:53.647Z,1.63
2023-08-08T00:18:25.814Z,1.57
2023-08-08T00:18:57.761Z,1.57
2023-08-08T00:19:29.707Z,1.37
2023-08-08T00:20:01.896Z,1.40
2023-08-08T00:20:33.820Z,1.30
2023-08-08T00:21:05.730Z,1.30
2023-08-08T00:21:37.706Z,1.33
2023-08-08T00:22:09.645Z,1.10
2023-08-08T00:22:41.880Z,1.57
2023-08-08T00:23:13.830Z,1.23
2023-08-08T00:23:45.744Z,1.37
2023-08-08T00:24:17.663Z,1.30
2023-08-08T00:24:49.586Z,1.47
2023-08-08T00:25:21.530Z,1.57
2023-08-08T00:25:53.856Z,1.50
2023-08-08T00:26:25.783Z,1.27
2023-08-08T00:26:57.690Z,1.27
2023-08-08T00:27:29.613Z,1.33
2023-08-08T00:28:01.462Z,1.40
2023-08-08T00:28:33.388Z,1.37
2023-08-08T00:29:05.307Z,1.17
2023-08-08T00:29:37.285Z,1.23
2023-08-08T00:30:10.221Z,1.47
2023-08-08T00:30:42.173Z,1.43
2023-08-08T00:31:14.185Z,1.37
2023-08-08T00:31:46.114Z,1.37
2023-08-08T00:32:18.083Z,1.23
2023-08-08T00:32:50.067Z,1.33
2023-08-08T00:33:22.014Z,1.30
2023-08-08T00:33:54.058Z,1.37
2023-08-08T00:34:25.930Z,1.37
2023-08-08T00:34:57.928Z,1.20
2023-08-08T00:35:29.851Z,1.13
2023-08-08T00:36:01.804Z,1.03
2023-08-08T00:36:33.686Z,1.13
2023-08-08T00:37:05.559Z,1.07
2023-08-08T00:37:37.493Z,1.27
2023-08-08T00:38:09.396Z,1.23
2023-08-08T00:38:41.367Z,1.17
2023-08-08T00:39:13.346Z,1.03
2023-08-08T00:39:47.294Z,1.10
2023-08-08T00:40:19.231Z,1.33
2023-08-08T00:40:51.119Z,1.07
2023-08-08T00:41:23.207Z,1.13
2023-08-08T00:41:55.156Z,1.27
2023-08-08T00:42:27.400Z,1.23
2023-08-08T00:42:59.340Z,1.20
2023-08-08T00:43:31.323Z,1.20
2023-08-08T00:44:03.233Z,0.90
2023-08-08T00:44:35.335Z,1.00
2023-08-08T00:45:07.805Z,0.97
2023-08-08T00:45:44.140Z,1.33
2023-08-08T00:46:17.117Z,1.17
2023-08-08T00:46:49.272Z,1.17
2023-08-08T00:47:21.280Z,1.30
2023-08-08T00:47:53.281Z,1.03
2023-08-08T00:48:25.890Z,0.97
2023-08-08T00:48:57.968Z,0.93
2023-08-08T00:49:30.027Z,0.97
2023-08-08T00:50:05.534Z,1.23
2023-08-08T00:50:38.683Z,1.13
2023-08-08T00:51:10.647Z,1.80
2023-08-08T00:51:43.426Z,1.30
2023-08-08T00:52:15.697Z,1.13
2023-08-08T00:52:49.134Z,1.30
2023-08-08T00:53:23.770Z,1.10
2023-08-08T00:53:57.177Z,1.13
2023-08-08T00:54:29.858Z,1.20
2023-08-08T00:55:02.875Z,1.13
2023-08-08T00:55:35.040Z,1.23
2023-08-08T00:56:07.380Z,1.77
2023-08-08T00:56:39.313Z,2.43
2023-08-08T00:57:11.747Z,5.90
2023-08-08T00:57:44.108Z,5.53
2023-08-08T00:58:17.541Z,3.23
2023-08-08T00:58:51.875Z,2.60
2023-08-08T00:59:25.180Z,1.90
2023-08-08T00:59:57.353Z,2.10
2023-08-08T01:00:29.298Z,1.90
2023-08-08T01:01:01.487Z,2.30
2023-08-08T01:01:33.429Z,2.03
2023-08-08T01:02:05.668Z,1.70
2023-08-08T01:02:38.124Z,1.37
2023-08-08T01:03:10.193Z,1.33
2023-08-08T01:03:42.369Z,1.07
2023-08-08T01:04:14.574Z,1.10
2023-08-08T01:04:47.135Z,1.03
2023-08-08T01:05:19.273Z,1.17
2023-08-08T01:06:14.483Z,1.33
2023-08-08T01:06:58.608Z,1.20
2023-08-08T01:07:53.534Z,1.03
2023-08-08T01:08:34.273Z,1.33
2023-08-08T01:09:18.821Z,1.13
2023-08-08T01:09:58.689Z,1.07
2023-08-08T01:10:40.647Z,1.00
2023-08-08T01:11:14.862Z,1.13
2023-08-08T01:11:49.697Z,1.07
2023-08-08T01:12:22.878Z,0.83
2023-08-08T01:13:05.543Z,0.97
2023-08-08T01:13:39.690Z,1.13
2023-08-08T01:14:12.839Z,1.00
2023-08-08T01:14:46.260Z,1.20
2023-08-08T01:15:19.028Z,1.23
2023-08-08T01:15:51.774Z,1.07
2023-08-08T01:16:27.540Z,1.10
2023-08-08T01:17:01.290Z,1.27
2023-08-08T01:17:34.389Z,1.20
2023-08-08T01:18:08.319Z,1.37
2023-08-08T01:18:41.756Z,1.37
2023-08-08T01:19:23.320Z,1.20
2023-08-08T01:19:56.012Z,1.30
2023-08-08T01:20:28.347Z,1.53
2023-08-08T01:21:01.404Z,1.30
2023-08-08T01:21:41.881Z,1.70
2023-08-08T01:22:26.185Z,1.30
2023-08-08T01:23:20.173Z,1.33
2023-08-08T01:24:06.503Z,1.33
2023-08-08T01:24:38.914Z,1.30
2023-08-08T01:25:12.107Z,1.17
2023-08-08T01:25:45.430Z,1.37
2023-08-08T01:26:18.625Z,1.30
2023-08-08T01:26:51.002Z,1.23
2023-08-08T01:27:23.630Z,1.53
2023-08-08T01:27:55.570Z,1.37
2023-08-08T01:28:27.982Z,1.47
2023-08-08T01:29:00.026Z,1.20
2023-08-08T01:29:31.894Z,1.50
2023-08-08T01:30:05.152Z,1.63
2023-08-08T01:30:37.113Z,1.37
2023-08-08T01:31:09.105Z,1.07
2023-08-08T01:31:41.053Z,1.20
2023-08-08T01:32:12.999Z,1.20
2023-08-08T01:32:45.004Z,1.27
2023-08-08T01:33:17.323Z,1.47
2023-08-08T01:33:49.542Z,1.50
2023-08-08T01:34:21.920Z,1.40
2023-08-08T01:34:54.576Z,1.30
2023-08-08T01:35:31.645Z,1.30
2023-08-08T01:36:15.206Z,1.30
2023-08-08T01:36:57.768Z,1.63
2023-08-08T01:37:47.485Z,1.83
2023-08-08T01:38:32.163Z,2.37
2023-08-08T01:39:11.267Z,2.33
2023-08-08T01:39:45.178Z,2.03
2023-08-08T01:40:19.309Z,2.20
2023-08-08T01:40:51.903Z,1.80
2023-08-08T01:41:25.578Z,1.83
2023-08-08T01:42:00.212Z,1.83
2023-08-08T01:42:33.190Z,1.60
2023-08-08T01:43:05.644Z,1.73
2023-08-08T01:43:41.890Z,1.83
2023-08-08T01:44:15.101Z,1.90
2023-08-08T01:44:47.911Z,2.00
2023-08-08T01:45:20.519Z,1.97
2023-08-08T01:45:54.472Z,1.67
2023-08-08T01:46:27.937Z,1.83
2023-08-08T01:47:00.358Z,1.33
2023-08-08T01:47:32.261Z,1.50
2023-08-08T01:48:11.718Z,1.47
2023-08-08T01:48:47.953Z,1.87
2023-08-08T01:49:19.991Z,1.43
2023-08-08T01:49:52.051Z,1.70
2023-08-08T01:50:24.047Z,1.57
2023-08-08T01:50:56.062Z,1.53
2023-08-08T01:51:29.104Z,1.17
2023-08-08T01:52:01.350Z,1.27
2023-08-08T01:52:33.498Z,1.43
2023-08-08T01:53:05.784Z,1.43
2023-08-08T01:53:37.732Z,1.37
2023-08-08T01:54:10.081Z,1.33
2023-08-08T01:54:43.518Z,1.50
2023-08-08T01:55:15.542Z,1.57
2023-08-08T01:55:47.470Z,1.80
2023-08-08T01:56:19.441Z,1.63
2023-08-08T01:56:51.393Z,1.67
2023-08-08T01:57:23.750Z,1.37
2023-08-08T01:57:55.712Z,1.47
2023-08-08T01:58:27.589Z,1.53
2023-08-08T01:58:59.522Z,1.30
2023-08-08T01:59:31.508Z,1.60
2023-08-08T02:00:05.612Z,1.80
2023-08-08T02:00:37.986Z,2.07
2023-08-08T02:01:09.914Z,1.67
2023-08-08T02:01:42.006Z,1.60
2023-08-08T02:02:13.945Z,1.63
2023-08-08T02:02:45.903Z,1.77
2023-08-08T02:03:18.043Z,1.93
2023-08-08T02:03:50.118Z,1.93
2023-08-08T02:04:22.037Z,1.77
2023-08-08T02:04:54.323Z,1.37
2023-08-08T02:05:26.374Z,1.77
2023-08-08T02:05:58.518Z,1.83
2023-08-08T02:06:30.880Z,1.97
2023-08-08T02:07:02.783Z,1.70
2023-08-08T02:07:34.805Z,1.77
2023-08-08T02:08:06.970Z,1.60
2023-08-08T02:08:39.584Z,1.60
2023-08-08T02:09:12.426Z,1.80
2023-08-08T02:09:44.324Z,1.87
2023-08-08T02:10:16.442Z,1.57
2023-08-08T02:10:48.449Z,1.37
2023-08-08T02:11:20.552Z,1.47
2023-08-08T02:11:52.497Z,1.47
2023-08-08T02:12:24.451Z,1.57
2023-08-08T02:12:56.438Z,1.63
2023-08-08T02:13:28.351Z,1.43
2023-08-08T02:14:00.205Z,1.83
2023-08-08T02:14:32.178Z,1.93
2023-08-08T02:15:05.775Z,1.50
2023-08-08T02:15:37.782Z,1.80
2023-08-08T02:16:09.864Z,1.90
2023-08-08T02:16:43.679Z,1.77
2023-08-08T02:17:15.705Z,1.83
2023-08-08T02:17:48.449Z,1.77
2023-08-08T02:18:20.579Z,1.67
2023-08-08T02:18:52.522Z,1.47
2023-08-08T02:19:24.463Z,1.60
2023-08-08T02:19:56.334Z,1.73
2023-08-08T02:20:29.700Z,1.63
2023-08-08T02:21:01.585Z,1.50
2023-08-08T02:21:33.493Z,1.63
2023-08-08T02:22:05.618Z,1.73
2023-08-08T02:22:37.596Z,1.63
2023-08-08T02:23:09.546Z,1.90
2023-08-08T02:23:41.486Z,2.20
2023-08-08T02:24:13.493Z,1.93
2023-08-08T02:24:45.417Z,1.70
2023-08-08T02:25:17.407Z,1.73
2023-08-08T02:25:49.354Z,1.57
2023-08-08T02:26:21.618Z,1.63
2023-08-08T02:26:53.530Z,1.77
2023-08-08T02:27:25.662Z,1.93
2023-08-08T02:27:58.925Z,1.77
2023-08-08T02:28:30.856Z,1.83
2023-08-08T02:29:02.887Z,1.57
2023-08-08T02:29:34.783Z,1.50
2023-08-08T02:30:07.352Z,1.57
2023-08-08T02:30:39.621Z,1.73
2023-08-08T02:31:11.708Z,1.93
2023-08-08T02:31:43.653Z,1.67
2023-08-08T02:32:15.645Z,1.53
2023-08-08T02:32:47.590Z,1.67
2023-08-08T02:33:20.485Z,1.93
2023-08-08T02:33:52.557Z,1.50
2023-08-08T02:34:25.083Z,1.40
2023-08-08T02:34:57.194Z,1.50
2023-08-08T02:35:29.188Z,1.60
2023-08-08T02:36:01.149Z,1.60
2023-08-08T02:36:34.461Z,1.30
2023-08-08T02:37:06.456Z,1.40
2023-08-08T02:37:38.391Z,1.43
2023-08-08T02:38:10.365Z,1.77
2023-08-08T02:38:42.656Z,1.80
2023-08-08T02:39:14.935Z,1.90
2023-08-08T02:39:46.933Z,2.10
2023-08-08T02:40:18.906Z,2.33
2023-08-08T02:40:50.813Z,1.90
2023-08-08T02:41:22.964Z,1.90
2023-08-08T02:41:54.877Z,1.53
2023-08-08T02:42:26.782Z,1.57
2023-08-08T02:42:58.698Z,2.20
2023-08-08T02:43:30.611Z,2.40
2023-08-08T02:44:02.628Z,2.30
2023-08-08T02:44:34.749Z,1.93
2023-08-08T02:45:07.468Z,1.90
2023-08-08T02:45:39.440Z,1.83
2023-08-08T02:46:11.346Z,1.90
2023-08-08T02:46:43.373Z,2.13
2023-08-08T02:47:15.229Z,1.90
2023-08-08T02:47:47.199Z,1.93
2023-08-08T02:48:19.225Z,1.87
2023-08-08T02:48:51.263Z,1.67
2023-08-08T02:49:23.203Z,1.83
2023-08-08T02:49:55.229Z,1.90
2023-08-08T02:50:27.210Z,1.87
2023-08-08T02:50:59.160Z,1.97
2023-08-08T02:51:31.091Z,1.67
2023-08-08T02:52:03.161Z,1.70
2023-08-08T02:52:35.116Z,1.90
2023-08-08T02:53:07.105Z,2.13
2023-08-08T02:53:39.085Z,2.00
2023-08-08T02:54:10.998Z,2.03
2023-08-08T02:54:43.057Z,1.97
2023-08-08T02:55:15.038Z,2.33
2023-08-08T02:55:47.742Z,1.87
2023-08-08T02:56:19.812Z,1.87
2023-08-08T02:56:51.778Z,1.73
2023-08-08T02:57:23.734Z,1.97
2023-08-08T02:57:55.627Z,1.80
2023-08-08T02:58:27.593Z,1.77
2023-08-08T02:58:59.591Z,1.97
2023-08-08T02:59:31.522Z,1.70
2023-08-08T03:00:05.161Z,1.70
2023-08-08T03:00:37.299Z,1.80
2023-08-08T03:01:09.510Z,1.73
2023-08-08T03:01:41.554Z,2.07
2023-08-08T03:02:13.573Z,2.23
2023-08-08T03:02:45.637Z,1.83
2023-08-08T03:03:17.556Z,1.90
2023-08-08T03:03:49.865Z,1.90
2023-08-08T03:04:21.891Z,1.47
2023-08-08T03:04:53.778Z,1.57
2023-08-08T03:05:25.880Z,1.63
2023-08-08T03:05:57.750Z,1.90
2023-08-08T03:06:29.651Z,1.40
2023-08-08T03:07:05.220Z,1.23
2023-08-08T03:07:37.164Z,1.47
2023-08-08T03:08:09.059Z,1.60
2023-08-08T03:08:41.129Z,1.40
2023-08-08T03:09:13.020Z,1.40
2023-08-08T03:09:46.280Z,1.00
2023-08-08T03:10:18.337Z,0.87
2023-08-08T03:10:50.554Z,1.07
2023-08-08T03:11:22.527Z,0.93
2023-08-08T03:11:54.597Z,1.17
2023-08-08T03:12:26.715Z,1.23
2023-08-08T03:12:58.797Z,1.27
2023-08-08T03:13:30.733Z,1.27
2023-08-08T03:14:02.859Z,1.20
2023-08-08T03:14:35.064Z,1.20
2023-08-08T03:15:08.028Z,1.50
2023-08-08T03:15:40.147Z,1.37
2023-08-08T03:16:12.140Z,1.40
2023-08-08T03:16:44.216Z,1.40
2023-08-08T03:17:16.132Z,1.23
2023-08-08T03:17:48.018Z,1.43
2023-08-08T03:18:20.080Z,1.17
2023-08-08T03:18:52.121Z,1.27
2023-08-08T03:19:24.031Z,1.27
2023-08-08T03:19:55.995Z,1.53
2023-08-08T03:20:28.304Z,1.30
2023-08-08T03:21:00.332Z,1.20
2023-08-08T03:21:32.648Z,1.33
2023-08-08T03:22:04.884Z,1.57
2023-08-08T03:22:36.863Z,1.63
2023-08-08T03:23:08.845Z,1.93
2023-08-08T03:23:40.760Z,1.73
2023-08-08T03:24:12.727Z,1.90
2023-08-08T03:24:44.591Z,2.03
2023-08-08T03:25:16.495Z,1.70
2023-08-08T03:25:48.443Z,1.77
2023-08-08T03:26:21.013Z,2.00
2023-08-08T03:26:53.031Z,1.93
2023-08-08T03:27:25.210Z,1.50
2023-08-08T03:27:57.152Z,1.50
2023-08-08T03:28:29.023Z,1.97
2023-08-08T03:29:01.006Z,2.67
2023-08-08T03:29:32.940Z,2.87
2023-08-08T03:30:05.410Z,1.97
2023-08-08T03:30:39.073Z,2.03
2023-08-08T03:31:11.057Z,1.87
2023-08-08T03:31:43.037Z,2.00
2023-08-08T03:32:14.934Z,2.13
2023-08-08T03:32:46.976Z,1.90
2023-08-08T03:33:19.122Z,2.07
2023-08-08T03:33:51.101Z,2.67
2023-08-08T03:34:23.182Z,2.73
2023-08-08T03:34:55.321Z,2.43
2023-08-08T03:35:28.119Z,2.20
2023-08-08T03:36:00.030Z,2.13
2023-08-08T03:36:32.247Z,2.30
2023-08-08T03:37:04.391Z,2.60
2023-08-08T03:37:36.440Z,2.67
2023-08-08T03:38:08.839Z,2.30
2023-08-08T03:38:40.951Z,2.30
2023-08-08T03:39:13.367Z,2.60
2023-08-08T03:39:45.368Z,2.43
2023-08-08T03:40:17.403Z,2.43
2023-08-08T03:40:49.310Z,2.17
2023-08-08T03:41:21.572Z,2.30
2023-08-08T03:41:53.633Z,2.17
2023-08-08T03:42:25.697Z,2.47
2023-08-08T03:42:57.571Z,2.83
2023-08-08T03:43:29.482Z,2.53
2023-08-08T03:44:03.792Z,1.93
2023-08-08T03:44:35.802Z,2.53
2023-08-08T03:45:08.175Z,2.07
2023-08-08T03:45:40.383Z,2.37
2023-08-08T03:46:12.909Z,2.67
2023-08-08T03:46:44.947Z,2.27
2023-08-08T03:47:19.761Z,2.13
2023-08-08T03:47:52.316Z,2.10
2023-08-08T03:48:24.284Z,2.00
2023-08-08T03:48:56.232Z,3.50
2023-08-08T03:49:28.216Z,3.50
2023-08-08T03:50:00.146Z,3.20
2023-08-08T03:50:32.029Z,2.50
2023-08-08T03:51:04.314Z,1.83
2023-08-08T03:51:36.286Z,1.73
2023-08-08T03:52:08.331Z,2.27
2023-08-08T03:52:40.528Z,2.23
2023-08-08T03:53:12.414Z,2.27
2023-08-08T03:53:44.842Z,1.97
2023-08-08T03:54:19.208Z,1.53
2023-08-08T03:54:51.195Z,1.73
2023-08-08T03:55:23.221Z,2.10
2023-08-08T03:55:55.096Z,2.63
2023-08-08T03:56:28.215Z,3.30
2023-08-08T03:57:00.622Z,3.33
2023-08-08T03:57:32.718Z,3.00
2023-08-08T03:58:04.914Z,2.87
2023-08-08T03:58:38.488Z,2.60
2023-08-08T03:59:11.045Z,2.83
2023-08-08T03:59:42.971Z,2.63
2023-08-08T04:00:15.003Z,2.67
2023-08-08T04:00:47.918Z,2.80
2023-08-08T04:01:19.911Z,3.03
2023-08-08T04:01:52.072Z,2.97
2023-08-08T04:02:24.299Z,3.47
2023-08-08T04:02:56.413Z,3.40
2023-08-08T04:03:28.331Z,2.93
2023-08-08T04:04:00.397Z,2.60
2023-08-08T04:04:32.253Z,2.90
2023-08-08T04:05:04.318Z,3.17
2023-08-08T04:05:36.222Z,2.83
2023-08-08T04:06:09.194Z,3.03
2023-08-08T04:06:41.228Z,2.50
2023-08-08T04:07:13.223Z,2.20
2023-08-08T04:07:45.168Z,2.27
2023-08-08T04:08:19.617Z,2.33
2023-08-08T04:08:52.762Z,3.03
2023-08-08T04:09:24.716Z,2.83
2023-08-08T04:09:56.630Z,2.57
2023-08-08T04:10:28.611Z,2.23
2023-08-08T04:11:00.530Z,2.17
2023-08-08T04:11:32.539Z,1.90
2023-08-08T04:12:04.741Z,1.97
2023-08-08T04:12:36.730Z,2.83
2023-08-08T04:13:08.833Z,2.50
2023-08-08T04:13:40.740Z,2.23
2023-08-08T04:14:12.642Z,2.00
2023-08-08T04:14:44.812Z,2.17
2023-08-08T04:15:16.857Z,2.00
2023-08-08T04:15:48.933Z,1.97
2023-08-08T04:16:20.938Z,1.87
2023-08-08T04:16:53.055Z,1.63
2023-08-08T04:17:25.147Z,1.90
2023-08-08T04:17:57.184Z,1.73
2023-08-08T04:18:29.190Z,1.37
2023-08-08T04:19:01.119Z,1.03
2023-08-08T04:19:33.165Z,1.30
2023-08-08T04:20:07.081Z,1.40
2023-08-08T04:20:39.857Z,1.33
2023-08-08T04:21:11.776Z,1.70
2023-08-08T04:21:43.759Z,1.87
2023-08-08T04:22:16.807Z,2.87
2023-08-08T04:22:48.738Z,3.07
2023-08-08T04:23:20.771Z,2.63
2023-08-08T04:23:52.724Z,2.60
2023-08-08T04:24:24.779Z,2.40
2023-08-08T04:24:56.636Z,2.57
2023-08-08T04:25:29.649Z,2.53
2023-08-08T04:26:01.735Z,2.60
2023-08-08T04:26:33.596Z,2.23
2023-08-08T04:27:05.664Z,2.57
2023-08-08T04:27:37.545Z,2.17
2023-08-08T04:28:09.564Z,2.50
2023-08-08T04:28:41.494Z,2.63
2023-08-08T04:29:13.405Z,2.67
2023-08-08T04:29:45.418Z,2.80
2023-08-08T04:30:17.486Z,2.40
2023-08-08T04:30:49.452Z,2.40
2023-08-08T04:31:21.614Z,2.03
2023-08-08T04:31:53.676Z,1.70
2023-08-08T04:32:26.027Z,1.57
2023-08-08T04:32:58.033Z,1.83
2023-08-08T04:33:30.061Z,1.53
2023-08-08T04:34:05.318Z,1.63
2023-08-08T04:34:37.301Z,1.90
2023-08-08T04:35:09.339Z,1.67
2023-08-08T04:35:41.326Z,1.53
2023-08-08T04:36:13.248Z,1.50
2023-08-08T04:36:45.137Z,1.73
2023-08-08T04:37:17.027Z,1.30
2023-08-08T04:37:49.004Z,1.30
2023-08-08T04:38:20.996Z,2.10
2023-08-08T04:38:52.919Z,1.73
2023-08-08T04:39:24.810Z,1.53
2023-08-08T04:39:56.935Z,1.53
2023-08-08T04:40:29.125Z,1.63
2023-08-08T04:41:01.500Z,1.67
2023-08-08T04:41:33.387Z,1.77
2023-08-08T04:42:05.676Z,1.30
2023-08-08T04:42:37.693Z,1.43
2023-08-08T04:43:09.619Z,2.03
2023-08-08T04:43:41.526Z,2.30
2023-08-08T04:44:13.442Z,2.77
2023-08-08T04:44:45.355Z,3.60
2023-08-08T04:45:17.264Z,4.10
2023-08-08T04:45:49.141Z,4.40
2023-08-08T04:46:21.020Z,3.43
2023-08-08T04:46:53.163Z,1.97
2023-08-08T04:47:25.159Z,2.90
2023-08-08T04:47:57.166Z,3.53
2023-08-08T04:48:29.115Z,3.13
2023-08-08T04:49:01.074Z,3.03
2023-08-08T04:49:32.960Z,3.03
2023-08-08T04:50:05.293Z,3.30
2023-08-08T04:50:37.301Z,3.53
2023-08-08T04:51:10.236Z,3.53
2023-08-08T04:51:42.137Z,3.17
2023-08-08T04:52:14.155Z,3.27
2023-08-08T04:52:46.112Z,2.90
2023-08-08T04:53:18.077Z,2.43
2023-08-08T04:53:49.967Z,2.23
2023-08-08T04:54:21.934Z,2.13
2023-08-08T04:54:53.924Z,2.13
2023-08-08T04:55:26.259Z,2.50
2023-08-08T04:55:58.611Z,2.13
2023-08-08T04:56:30.943Z,1.83
2023-08-08T04:57:02.950Z,1.77
2023-08-08T04:57:34.980Z,2.03
2023-08-08T04:58:07.482Z,2.00
2023-08-08T04:58:39.405Z,1.93
2023-08-08T04:59:11.382Z,2.57
2023-08-08T04:59:43.942Z,2.93
2023-08-08T05:00:16.030Z,2.57
2023-08-08T05:00:48.049Z,2.03
2023-08-08T05:01:21.733Z,2.27
2023-08-08T05:01:53.685Z,2.40
2023-08-08T05:02:26.101Z,2.50
2023-08-08T05:02:58.208Z,2.10
2023-08-08T05:03:30.298Z,2.43
2023-08-08T05:04:02.358Z,2.10
2023-08-08T05:04:34.290Z,2.20
2023-08-08T05:05:06.775Z,2.27
2023-08-08T05:05:38.744Z,2.20
2023-08-08T05:06:10.673Z,2.60
2023-08-08T05:06:42.594Z,2.17
2023-08-08T05:07:14.566Z,2.20
2023-08-08T05:07:46.505Z,2.23
2023-08-08T05:08:18.921Z,2.27
2023-08-08T05:08:54.261Z,2.30
2023-08-08T05:09:28.941Z,2.67
2023-08-08T05:10:00.882Z,2.30
2023-08-08T05:10:32.764Z,2.53
2023-08-08T05:11:04.752Z,2.33
2023-08-08T05:11:37.625Z,2.40
2023-08-08T05:12:09.761Z,2.30
2023-08-08T05:12:42.172Z,2.20
2023-08-08T05:13:14.159Z,2.27
2023-08-08T05:13:46.154Z,2.00
2023-08-08T05:14:18.086Z,2.50
2023-08-08T05:14:50.012Z,2.37
2023-08-08T05:15:21.975Z,2.23
2023-08-08T05:15:53.871Z,2.60
2023-08-08T05:16:25.906Z,3.13
2023-08-08T05:16:57.810Z,2.57
2023-08-08T05:17:32.819Z,2.60
2023-08-08T05:18:05.130Z,2.73
2023-08-08T05:18:37.180Z,2.37
2023-08-08T05:19:09.036Z,2.80
2023-08-08T05:19:40.979Z,2.40
2023-08-08T05:20:13.396Z,2.20
2023-08-08T05:20:45.321Z,2.37
2023-08-08T05:21:17.246Z,2.40
2023-08-08T05:21:50.473Z,2.13
2023-08-08T05:22:23.744Z,2.50
2023-08-08T05:22:55.665Z,2.43
2023-08-08T05:23:27.671Z,2.07
2023-08-08T05:23:59.728Z,2.20
2023-08-08T05:24:31.656Z,2.50
2023-08-08T05:25:03.733Z,2.57
2023-08-08T05:25:35.715Z,2.43
2023-08-08T05:26:07.703Z,2.63
2023-08-08T05:26:39.570Z,2.23
2023-08-08T05:27:12.633Z,2.33
2023-08-08T05:27:44.694Z,2.53
2023-08-08T05:28:16.656Z,2.43
2023-08-08T05:28:48.586Z,2.37
2023-08-08T05:29:21.022Z,2.63
2023-08-08T05:29:52.950Z,2.90
2023-08-08T05:30:25.620Z,2.47
2023-08-08T05:30:57.750Z,2.37
2023-08-08T05:31:29.889Z,2.40
2023-08-08T05:32:02.108Z,2.27
2023-08-08T05:32:34.444Z,2.63
2023-08-08T05:33:06.440Z,2.20
2023-08-08T05:33:38.323Z,2.30
2023-08-08T05:34:10.276Z,2.07
2023-08-08T05:34:42.287Z,2.10
2023-08-08T05:35:14.442Z,2.33
2023-08-08T05:35:46.366Z,2.13
2023-08-08T05:36:18.332Z,1.77
2023-08-08T05:36:56.167Z,2.07
2023-08-08T05:37:37.997Z,1.80
2023-08-08T05:38:09.863Z,1.83
2023-08-08T05:38:42.899Z,2.07
2023-08-08T05:39:14.899Z,2.07
2023-08-08T05:39:46.871Z,2.10
2023-08-08T05:40:18.842Z,2.07
2023-08-08T05:40:50.760Z,2.23
2023-08-08T05:41:22.734Z,2.43
2023-08-08T05:41:54.664Z,2.30
2023-08-08T05:42:27.170Z,2.07
2023-08-08T05:42:59.109Z,2.33
2023-08-08T05:43:31.160Z,2.23
2023-08-08T05:44:03.196Z,2.33
2023-08-08T05:44:35.152Z,2.17
2023-08-08T05:45:07.835Z,2.17
2023-08-08T05:45:39.807Z,1.83
2023-08-08T05:46:11.738Z,2.07
2023-08-08T05:46:43.667Z,2.10
2023-08-08T05:47:15.559Z,1.93
2023-08-08T05:47:47.549Z,2.47
2023-08-08T05:48:19.514Z,2.13
2023-08-08T05:48:51.629Z,2.13
2023-08-08T05:49:23.597Z,2.07
2023-08-08T05:49:55.654Z,2.03
2023-08-08T05:50:30.670Z,2.53
2023-08-08T05:51:06.088Z,2.13
2023-08-08T05:51:38.071Z,2.27
2023-08-08T05:52:10.527Z,1.63
2023-08-08T05:52:43.006Z,1.63
2023-08-08T05:53:15.053Z,1.93
2023-08-08T05:53:47.052Z,1.90
2023-08-08T05:54:19.043Z,1.63
2023-08-08T05:54:51.002Z,1.77
2023-08-08T05:55:23.114Z,1.67
2023-08-08T05:55:55.081Z,1.83
2023-08-08T05:56:35.299Z,1.93
2023-08-08T05:57:07.741Z,1.67
2023-08-08T05:57:39.673Z,1.67
2023-08-08T05:58:11.685Z,1.63
2023-08-08T05:58:43.645Z,1.57
2023-08-08T05:59:15.546Z,1.50
2023-08-08T05:59:47.430Z,1.43
2023-08-08T06:00:19.754Z,1.47
2023-08-08T06:00:51.818Z,1.47
2023-08-08T06:01:24.183Z,1.60
2023-08-08T06:01:56.302Z,1.90
2023-08-08T06:02:28.396Z,1.80
2023-08-08T06:03:00.354Z,1.63
2023-08-08T06:03:32.319Z,1.70
2023-08-08T06:04:04.836Z,1.57
2023-08-08T06:04:36.824Z,1.40
2023-08-08T06:05:09.344Z,1.43
2023-08-08T06:05:41.244Z,1.57
2023-08-08T06:06:13.210Z,1.40
2023-08-08T06:06:45.130Z,1.73
2023-08-08T06:07:17.120Z,1.37
2023-08-08T06:07:49.149Z,1.43
2023-08-08T06:08:21.065Z,1.33
2023-08-08T06:08:53.207Z,1.87
2023-08-08T06:09:26.618Z,1.73
2023-08-08T06:09:58.595Z,1.70
2023-08-08T06:10:30.513Z,1.47
2023-08-08T06:11:02.461Z,1.80
2023-08-08T06:11:34.312Z,3.27
2023-08-08T06:12:06.657Z,2.93
2023-08-08T06:12:38.549Z,1.83
2023-08-08T06:13:10.532Z,1.77
2023-08-08T06:13:42.499Z,1.87
2023-08-08T06:14:14.495Z,1.73
2023-08-08T06:14:46.478Z,1.47
2023-08-08T06:15:18.647Z,1.63
2023-08-08T06:15:50.675Z,1.80
2023-08-08T06:16:23.144Z,1.60
2023-08-08T06:16:55.410Z,1.37
2023-08-08T06:17:27.339Z,1.47
2023-08-08T06:17:59.267Z,1.70
2023-08-08T06:18:31.304Z,1.43
2023-08-08T06:19:04.316Z,1.43
2023-08-08T06:19:36.296Z,1.37
2023-08-08T06:20:10.299Z,1.27
2023-08-08T06:20:42.390Z,1.67
2023-08-08T06:21:14.310Z,1.53
2023-08-08T06:21:47.523Z,1.57
2023-08-08T06:22:20.458Z,1.57
2023-08-08T06:22:54.406Z,1.57
2023-08-08T06:23:26.552Z,1.57
2023-08-08T06:23:58.825Z,1.70
2023-08-08T06:24:31.854Z,1.70
2023-08-08T06:25:04.610Z,1.73
2023-08-08T06:25:36.554Z,1.63
2023-08-08T06:26:08.461Z,1.80
2023-08-08T06:26:40.493Z,1.57
2023-08-08T06:27:14.527Z,1.57
2023-08-08T06:27:56.806Z,1.37
2023-08-08T06:28:34.328Z,1.30
2023-08-08T06:29:06.752Z,1.40
2023-08-08T06:29:38.704Z,1.27
2023-08-08T06:30:11.105Z,1.47
2023-08-08T06:30:43.334Z,1.40
2023-08-08T06:31:16.071Z,1.57
2023-08-08T06:31:48.077Z,1.63
2023-08-08T06:32:19.965Z,1.50
2023-08-08T06:32:52.140Z,1.27
2023-08-08T06:33:24.877Z,1.30
2023-08-08T06:33:56.870Z,1.20
2023-08-08T06:34:28.879Z,1.23
2023-08-08T06:35:00.995Z,1.47
2023-08-08T06:35:33.016Z,1.33
2023-08-08T06:36:05.274Z,1.23
2023-08-08T06:36:37.257Z,1.47
2023-08-08T06:37:09.137Z,1.37
2023-08-08T06:37:41.082Z,1.43
2023-08-08T06:38:13.063Z,1.30
2023-08-08T06:38:45.351Z,1.37
2023-08-08T06:39:17.345Z,1.20
2023-08-08T06:39:49.319Z,1.20
2023-08-08T06:40:22.445Z,1.20
2023-08-08T06:40:54.418Z,1.30
2023-08-08T06:41:26.659Z,1.43
2023-08-08T06:41:59.692Z,1.20
2023-08-08T06:42:32.095Z,1.83
2023-08-08T06:43:04.078Z,2.27
2023-08-08T06:43:35.981Z,1.73
2023-08-08T06:44:08.946Z,1.60
2023-08-08T06:44:45.405Z,1.63
2023-08-08T06:45:17.421Z,1.57
2023-08-08T06:45:49.556Z,1.47
2023-08-08T06:46:21.839Z,1.47
2023-08-08T06:46:53.823Z,1.57
2023-08-08T06:47:25.790Z,1.57
2023-08-08T06:47:58.340Z,1.40
2023-08-08T06:48:30.345Z,1.17
2023-08-08T06:49:02.582Z,1.30
2023-08-08T06:49:34.515Z,1.37
2023-08-08T06:50:07.141Z,1.57
2023-08-08T06:50:39.114Z,1.53
2023-08-08T06:51:11.397Z,1.60
2023-08-08T06:51:43.312Z,1.37
2023-08-08T06:52:15.165Z,1.70
2023-08-08T06:52:47.065Z,1.80
2023-08-08T06:53:19.439Z,1.67
2023-08-08T06:53:51.528Z,1.50
2023-08-08T06:54:23.478Z,1.57
2023-08-08T06:54:55.376Z,2.33
2023-08-08T06:55:28.217Z,1.87
2023-08-08T06:56:00.153Z,1.67
2023-08-08T06:56:32.140Z,1.73
2023-08-08T06:57:05.395Z,1.73
2023-08-08T06:57:37.328Z,1.70
2023-08-08T06:58:09.236Z,1.53
2023-08-08T06:58:41.125Z,1.50
2023-08-08T06:59:13.068Z,1.67
2023-08-08T06:59:45.082Z,1.60
2023-08-08T07:00:17.466Z,1.50
2023-08-08T07:00:49.513Z,1.23
2023-08-08T07:01:21.624Z,1.47
2023-08-08T07:01:53.580Z,1.33
2023-08-08T07:02:25.587Z,1.53
2023-08-08T07:02:59.169Z,1.27
2023-08-08T07:03:31.852Z,1.43
2023-08-08T07:04:05.892Z,1.70
2023-08-08T07:04:38.407Z,1.50
2023-08-08T07:05:11.419Z,1.40
2023-08-08T07:05:43.302Z,1.53
2023-08-08T07:06:18.485Z,1.43
2023-08-08T07:06:50.472Z,1.47
2023-08-08T07:07:22.531Z,1.53
2023-08-08T07:07:54.508Z,1.50
2023-08-08T07:08:26.491Z,1.57
2023-08-08T07:08:58.729Z,1.33
2023-08-08T07:09:30.760Z,1.50
2023-08-08T07:10:03.112Z,1.37
2023-08-08T07:10:35.448Z,1.40
2023-08-08T07:11:07.722Z,1.30
2023-08-08T07:11:39.626Z,1.33
2023-08-08T07:12:11.606Z,1.37
2023-08-08T07:12:43.542Z,1.33
2023-08-08T07:13:16.635Z,1.40
2023-08-08T07:13:48.684Z,1.43
2023-08-08T07:14:20.576Z,1.33